Zalmon — ZGFX7 — position and weather

sailwx.info

Track history (hours):
 
Tides and Currents Weather Stations Pressure Air Temp Water Temp Dewpoint Dewpoint Depression Visibility Wind Speed Wind Dir Waves Ship Positions

Zalmon

Last reported at 2017-Sep-20 17:08 UTC. Time now 2017-Sep-21 10:36 UTC.
Position N 42°45' E 010°15'.

Length 40 m; draft 4.2 m.

Type: Sailing vessel. MMSI: 319102400.

Date/timePositionNaut miles runAvg speedWind from/ knotsBaromVisibWave heightAir tempDewpointWater temp
2017-Sep-20 17:08N 42°45' E 010°15'0 0.0
2017-Sep-20 16:58N 42°45' E 010°15'12 1.3
2017-Sep-20 07:53N 42°38' E 010°28'192 8.4
2017-Sep-19 09:04N 40°48' E 013°60'1 8.0
2017-Sep-19 08:59N 40°47' E 014°00'4 8.2
2017-Sep-19 08:31N 40°46' E 014°05'4 8.5
2017-Sep-19 08:00N 40°45' E 014°11'4 8.8
2017-Sep-19 07:30N 40°44' E 014°16'4 9.0
2017-Sep-19 07:00N 40°43' E 014°22'4 0.1
2017-Sep-17 11:43N 40°41' E 014°25'2 9.0
2017-Sep-17 11:30N 40°40' E 014°23'83 2.7
2017-Sep-16 04:35N 39°21' E 015°01'1110.1
2017-Sep-16 03:28N 39°10' E 015°04'610.2
2017-Sep-16 02:55N 39°05' E 015°06'410.3
2017-Sep-16 02:29N 39°01' E 015°07'510.2
2017-Sep-16 02:00N 38°56' E 015°09'710.1
2017-Sep-16 01:20N 38°49' E 015°12'1 1.6
2017-Sep-16 01:00N 38°49' E 015°12'0 0.3
2017-Sep-16 00:30N 38°49' E 015°12'4 7.3
2017-Sep-16 00:00N 38°46' E 015°12'5 9.5
2017-Sep-15 23:30N 38°42' E 015°16'4 9.2
2017-Sep-15 23:00N 38°38' E 015°19'4 8.7
2017-Sep-15 22:30N 38°35' E 015°23'5 9.1
2017-Sep-15 22:00N 38°32' E 015°27'5 9.4
2017-Sep-15 21:30N 38°28' E 015°31'5 9.9
2017-Sep-15 21:00N 38°24' E 015°35'510.1
2017-Sep-15 20:30N 38°21' E 015°39'4 8.8
2017-Sep-15 20:00N 38°16' E 015°41'4 7.7
2017-Sep-15 19:30N 38°14' E 015°38'4 8.5
2017-Sep-15 19:00N 38°10' E 015°38'5 9.0
2017-Sep-15 18:30N 38°05' E 015°37'5 9.2
2017-Sep-15 18:00N 38°01' E 015°37'811.3
2017-Sep-15 17:20N 37°55' E 015°44'196 9.8
2017-Sep-14 21:12N 38°28' E 019°50'2 9.9
2017-Sep-14 21:01N 38°28' E 019°53'5 9.8
2017-Sep-14 20:30N 38°29' E 019°59'12 9.8
2017-Sep-14 19:17N 38°31' E 020°14'4 9.4
2017-Sep-14 18:53N 38°32' E 020°19'  
2017-Sep-12 11:34N 37°55' E 023°01'1 7.0
2017-Sep-12 11:24N 37°55' E 023°02'3 7.7
2017-Sep-12 10:59N 37°54' E 023°06'4 9.3
2017-Sep-12 10:30N 37°54' E 023°12'5 9.6
2017-Sep-12 10:00N 37°54' E 023°18'5 9.7
2017-Sep-12 09:31N 37°53' E 023°24'4 8.7
2017-Sep-12 09:00N 37°53' E 023°29'5 9.5
2017-Sep-12 08:30N 37°54' E 023°35'  
Track history (hours):
 
Tides and Currents Weather Stations Pressure Air Temp Water Temp Dewpoint Dewpoint Depression Visibility Wind Speed Wind Dir Waves Ship Positions

Zalmon

Last reported at 2017-Sep-20 17:08 UTC. Time now 2017-Sep-21 10:36 UTC.
Position N 42°45' E 010°15'.

Length 40 m; draft 4.2 m.

Type: Sailing vessel. MMSI: 319102400.

Date/timePositionNaut miles runAvg speedWind from/ knotsBaromVisibWave heightAir tempDewpointWater temp
2017-Sep-20 17:08N 42°45' E 010°15'0 0.0
2017-Sep-20 16:58N 42°45' E 010°15'12 1.3
2017-Sep-20 07:53N 42°38' E 010°28'192 8.4
2017-Sep-19 09:04N 40°48' E 013°60'1 8.0
2017-Sep-19 08:59N 40°47' E 014°00'4 8.2
2017-Sep-19 08:31N 40°46' E 014°05'4 8.5
2017-Sep-19 08:00N 40°45' E 014°11'4 8.8
2017-Sep-19 07:30N 40°44' E 014°16'4 9.0
2017-Sep-19 07:00N 40°43' E 014°22'4 0.1
2017-Sep-17 11:43N 40°41' E 014°25'2 9.0
2017-Sep-17 11:30N 40°40' E 014°23'83 2.7
2017-Sep-16 04:35N 39°21' E 015°01'1110.1
2017-Sep-16 03:28N 39°10' E 015°04'610.2
2017-Sep-16 02:55N 39°05' E 015°06'410.3
2017-Sep-16 02:29N 39°01' E 015°07'510.2
2017-Sep-16 02:00N 38°56' E 015°09'710.1
2017-Sep-16 01:20N 38°49' E 015°12'1 1.6
2017-Sep-16 01:00N 38°49' E 015°12'0 0.3
2017-Sep-16 00:30N 38°49' E 015°12'4 7.3
2017-Sep-16 00:00N 38°46' E 015°12'5 9.5
2017-Sep-15 23:30N 38°42' E 015°16'4 9.2
2017-Sep-15 23:00N 38°38' E 015°19'4 8.7
2017-Sep-15 22:30N 38°35' E 015°23'5 9.1
2017-Sep-15 22:00N 38°32' E 015°27'5 9.4
2017-Sep-15 21:30N 38°28' E 015°31'5 9.9
2017-Sep-15 21:00N 38°24' E 015°35'510.1
2017-Sep-15 20:30N 38°21' E 015°39'4 8.8
2017-Sep-15 20:00N 38°16' E 015°41'4 7.7
2017-Sep-15 19:30N 38°14' E 015°38'4 8.5
2017-Sep-15 19:00N 38°10' E 015°38'5 9.0
2017-Sep-15 18:30N 38°05' E 015°37'5 9.2
2017-Sep-15 18:00N 38°01' E 015°37'811.3
2017-Sep-15 17:20N 37°55' E 015°44'196 9.8
2017-Sep-14 21:12N 38°28' E 019°50'2 9.9
2017-Sep-14 21:01N 38°28' E 019°53'5 9.8
2017-Sep-14 20:30N 38°29' E 019°59'12 9.8
2017-Sep-14 19:17N 38°31' E 020°14'4 9.4
2017-Sep-14 18:53N 38°32' E 020°19'  
2017-Sep-12 11:34N 37°55' E 023°01'1 7.0
2017-Sep-12 11:24N 37°55' E 023°02'3 7.7
2017-Sep-12 10:59N 37°54' E 023°06'4 9.3
2017-Sep-12 10:30N 37°54' E 023°12'5 9.6
2017-Sep-12 10:00N 37°54' E 023°18'5 9.7
2017-Sep-12 09:31N 37°53' E 023°24'4 8.7
2017-Sep-12 09:00N 37°53' E 023°29'5 9.5
2017-Sep-12 08:30N 37°54' E 023°35'  

Dump ship's entire track history